Terminal Aerodrome Forecast
Issued by NWS Caribou, ME

Home | Current Version | Previous Version | Text Only | Print | Product List | Glossary On
Versions: 1 2 3 4 5 6 7 8 9 10 11 12 13 14 15 16 17
000
FTUS41 KCAR 042023 AAA
TAFBGR
TAF AMD
KBGR 042023Z 0420/0518 19010KT P6SM BKN040
      TEMPO 0421/0423 3SM -TSRA BKN040CB
     FM050100 20005KT P6SM SCT040 BKN150
     FM050600 VRB03KT 2SM BR BKN150
      TEMPO 0508/0512 3/4SM BR
     FM051400 22006KT P6SM BKN050=

USA.gov is the U.S. government's official web portal to all federal, state and local government web resources and services.